TVS3210 LKPR-HEMA
Flight info
| Callsign | TVS3210 |
|---|---|
| Flight time | 4h 22m |
| Altitude | 35000 |
| Route | VOZ DCT LIKSA DCT PEPIK DCT ERGOM DCT TIMUR DCT ADORU/N0446F370 UG80 EKI UW81 YAYLA UL854 KULAR UT39 TOMBI DCT PEDER DCT MAROS DCT USEBE DCT EVORA DCT RASDA A16 CVO A727 LXR M999 ELELI V730 ALKUN ALKUN1E |
| Aircraft | A320/M-SDE2E3FGIJ1RWXYZ/LB1 |
Departure
| Time | 2026-05-04 10:35 |
|---|---|
| Airport | Václav Havel Airport Prague (LKPR) |
Arrival
| Time | 2026-05-04 14:57 |
|---|---|
| Airport | Marsa Alam International Airport (HEMA) |
| Time | Latitude | Longitude | Altitude | Speed | Heading |
|---|---|---|---|---|---|
| 2026-05-04 09:51 | 50.11029 | 14.26781 | 1171 ft | 0 kts | 65° |
| 2026-05-04 10:22 | 50.11019 | 14.26749 | 1169 ft | 4 kts | 64° |
| 2026-05-04 10:23 | 50.11006 | 14.26716 | 1169 ft | 4 kts | 28° |
| 2026-05-04 10:23 | 50.10996 | 14.26711 | 1169 ft | 0 kts | 328° |
| 2026-05-04 10:25 | 50.11037 | 14.26671 | 1173 ft | 0 kts | 327° |
| 2026-05-04 10:26 | 50.11062 | 14.26646 | 1173 ft | 10 kts | 327° |
| 2026-05-04 10:26 | 50.11079 | 14.26568 | 1169 ft | 9 kts | 249° |
| 2026-05-04 10:27 | 50.11015 | 14.26481 | 1173 ft | 13 kts | 214° |
| 2026-05-04 10:27 | 50.10949 | 14.26409 | 1170 ft | 10 kts | 214° |
| 2026-05-04 10:27 | 50.10892 | 14.26350 | 1172 ft | 12 kts | 214° |
| 2026-05-04 10:27 | 50.10827 | 14.26281 | 1171 ft | 10 kts | 214° |
| 2026-05-04 10:28 | 50.10774 | 14.26224 | 1172 ft | 8 kts | 215° |
| 2026-05-04 10:28 | 50.10733 | 14.26179 | 1174 ft | 6 kts | 214° |
| 2026-05-04 10:28 | 50.10700 | 14.26145 | 1171 ft | 5 kts | 213° |
| 2026-05-04 10:28 | 50.10676 | 14.26120 | 1172 ft | 3 kts | 214° |
| 2026-05-04 10:29 | 50.10662 | 14.26105 | 1170 ft | 2 kts | 214° |
| 2026-05-04 10:29 | 50.10634 | 14.26076 | 1171 ft | 13 kts | 213° |
| 2026-05-04 10:29 | 50.10536 | 14.25982 | 1174 ft | 16 kts | 198° |
| 2026-05-04 10:29 | 50.10455 | 14.26069 | 1176 ft | 15 kts | 128° |
| 2026-05-04 10:30 | 50.10370 | 14.26245 | 1174 ft | 24 kts | 126° |
| 2026-05-04 10:30 | 50.10268 | 14.26456 | 1175 ft | 24 kts | 126° |
| 2026-05-04 10:30 | 50.10165 | 14.26669 | 1177 ft | 26 kts | 127° |
| 2026-05-04 10:30 | 50.10059 | 14.26887 | 1190 ft | 23 kts | 127° |
| 2026-05-04 10:31 | 50.09975 | 14.27061 | 1198 ft | 18 kts | 127° |
| 2026-05-04 10:31 | 50.09910 | 14.27196 | 1201 ft | 14 kts | 127° |
| 2026-05-04 10:32 | 50.09656 | 14.27616 | 1208 ft | 14 kts | 135° |
| 2026-05-04 10:33 | 50.09577 | 14.27610 | 1212 ft | 10 kts | 215° |
| 2026-05-04 10:33 | 50.09513 | 14.27536 | 1213 ft | 17 kts | 217° |
| 2026-05-04 10:33 | 50.09423 | 14.27428 | 1210 ft | 7 kts | 225° |
| 2026-05-04 10:33 | 50.09428 | 14.27376 | 1209 ft | 5 kts | 299° |
| 2026-05-04 10:34 | 50.09448 | 14.27334 | 1208 ft | 6 kts | 307° |
| 2026-05-04 10:34 | 50.09542 | 14.27138 | 1206 ft | 55 kts | 307° |
| 2026-05-04 10:34 | 50.09905 | 14.26390 | 1201 ft | 116 kts | 307° |
| 2026-05-04 10:34 | 50.10493 | 14.25174 | 1172 ft | 165 kts | 307° |
| 2026-05-04 10:35 | 50.11187 | 14.23768 | 1792 ft | 160 kts | 309° |
| 2026-05-04 10:35 | 50.11869 | 14.22370 | 2330 ft | 168 kts | 307° |
| 2026-05-04 10:35 | 50.12581 | 14.20896 | 2893 ft | 172 kts | 307° |
| 2026-05-04 10:35 | 50.13303 | 14.19407 | 3385 ft | 173 kts | 306° |
| 2026-05-04 10:36 | 50.14033 | 14.17894 | 3809 ft | 176 kts | 306° |
| 2026-05-04 10:36 | 50.14777 | 14.16351 | 4241 ft | 180 kts | 305° |
| 2026-05-04 10:36 | 50.15543 | 14.14738 | 4623 ft | 193 kts | 304° |
| 2026-05-04 10:36 | 50.16399 | 14.12936 | 4772 ft | 219 kts | 303° |
| 2026-05-04 10:37 | 50.17355 | 14.10907 | 4951 ft | 245 kts | 304° |
| 2026-05-04 10:37 | 50.18390 | 14.08655 | 5364 ft | 262 kts | 297° |
| 2026-05-04 10:37 | 50.18852 | 14.05924 | 5991 ft | 265 kts | 269° |
| 2026-05-04 10:37 | 50.18557 | 14.03097 | 6724 ft | 267 kts | 247° |
| 2026-05-04 10:39 | 50.09137 | 14.04810 | 10436 ft | 323 kts | 139° |
| 2026-05-04 10:39 | 50.07475 | 14.07321 | 10672 ft | 341 kts | 139° |
| 2026-05-04 10:39 | 50.05749 | 14.09924 | 11217 ft | 347 kts | 139° |
| 2026-05-04 10:40 | 50.04007 | 14.12550 | 11841 ft | 351 kts | 139° |
| 2026-05-04 10:40 | 50.02245 | 14.15199 | 12486 ft | 354 kts | 139° |
| 2026-05-04 10:40 | 50.00464 | 14.17870 | 13131 ft | 356 kts | 139° |
| 2026-05-04 10:40 | 49.98670 | 14.20551 | 13756 ft | 360 kts | 139° |
| 2026-05-04 10:41 | 49.96852 | 14.23266 | 14309 ft | 363 kts | 139° |
| 2026-05-04 10:41 | 49.95026 | 14.25988 | 14875 ft | 365 kts | 139° |
| 2026-05-04 10:41 | 49.93192 | 14.28715 | 15438 ft | 367 kts | 139° |
| 2026-05-04 10:41 | 49.91340 | 14.31466 | 15938 ft | 370 kts | 139° |
| 2026-05-04 10:42 | 49.89496 | 14.34205 | 16447 ft | 373 kts | 139° |
| 2026-05-04 10:42 | 49.87615 | 14.36999 | 16968 ft | 376 kts | 139° |
| 2026-05-04 10:42 | 49.85719 | 14.39815 | 17474 ft | 379 kts | 139° |
| 2026-05-04 10:42 | 49.83806 | 14.42652 | 17964 ft | 382 kts | 139° |
| 2026-05-04 10:43 | 49.81880 | 14.45501 | 18408 ft | 385 kts | 139° |
| 2026-05-04 10:44 | 49.67946 | 14.65979 | 21569 ft | 404 kts | 139° |
| 2026-05-04 10:45 | 49.65893 | 14.68984 | 22007 ft | 407 kts | 139° |
| 2026-05-04 10:45 | 49.63836 | 14.71993 | 22435 ft | 410 kts | 139° |
| 2026-05-04 10:45 | 49.61757 | 14.75034 | 22847 ft | 412 kts | 139° |
| 2026-05-04 10:45 | 49.59672 | 14.78086 | 23255 ft | 415 kts | 138° |
| 2026-05-04 10:46 | 49.57573 | 14.81157 | 23641 ft | 417 kts | 138° |
| 2026-05-04 10:46 | 49.55460 | 14.84244 | 23968 ft | 420 kts | 138° |
| 2026-05-04 10:46 | 49.53505 | 14.87614 | 24283 ft | 424 kts | 128° |
| 2026-05-04 10:46 | 49.51927 | 14.91464 | 24591 ft | 429 kts | 118° |
| 2026-05-04 10:47 | 49.50588 | 14.95572 | 24885 ft | 431 kts | 118° |
| 2026-05-04 10:47 | 49.49239 | 14.99713 | 25178 ft | 434 kts | 118° |
| 2026-05-04 10:47 | 49.47883 | 15.03860 | 25471 ft | 436 kts | 118° |
| 2026-05-04 10:47 | 49.46512 | 15.08037 | 25773 ft | 438 kts | 118° |
| 2026-05-04 10:49 | 49.36732 | 15.37651 | 27704 ft | 451 kts | 118° |
| 2026-05-04 10:49 | 49.35307 | 15.41939 | 27986 ft | 453 kts | 118° |
| 2026-05-04 10:50 | 49.33873 | 15.46254 | 28251 ft | 455 kts | 118° |
| 2026-05-04 10:51 | 49.23638 | 15.76795 | 29872 ft | 466 kts | 118° |
| 2026-05-04 10:52 | 49.22148 | 15.81214 | 30069 ft | 468 kts | 118° |
| 2026-05-04 10:52 | 49.20653 | 15.85646 | 30252 ft | 469 kts | 118° |
| 2026-05-04 10:52 | 49.19152 | 15.90086 | 30424 ft | 470 kts | 118° |
| 2026-05-04 10:54 | 49.08633 | 16.20912 | 32070 ft | 468 kts | 118° |
| 2026-05-04 10:54 | 49.07126 | 16.25317 | 32300 ft | 467 kts | 118° |
| 2026-05-04 10:56 | 48.96558 | 16.55898 | 33818 ft | 464 kts | 118° |
| 2026-05-04 10:56 | 48.95050 | 16.60243 | 34040 ft | 464 kts | 119° |
| 2026-05-04 10:56 | 48.93540 | 16.64573 | 34230 ft | 464 kts | 119° |
| 2026-05-04 10:57 | 48.92027 | 16.68902 | 34421 ft | 463 kts | 119° |
| 2026-05-04 10:57 | 48.90514 | 16.73218 | 34603 ft | 463 kts | 119° |
| 2026-05-04 10:57 | 48.89001 | 16.77533 | 34776 ft | 463 kts | 119° |
| 2026-05-04 10:57 | 48.87487 | 16.81846 | 34954 ft | 462 kts | 119° |
| 2026-05-04 10:58 | 48.85976 | 16.86141 | 35029 ft | 461 kts | 118° |
| 2026-05-04 10:58 | 48.82960 | 16.94685 | 35040 ft | 463 kts | 118° |
| 2026-05-04 10:59 | 48.79913 | 17.03280 | 35042 ft | 461 kts | 119° |
| 2026-05-04 10:59 | 48.76339 | 17.11312 | 35045 ft | 461 kts | 132° |
| 2026-05-04 11:00 | 48.72130 | 17.18653 | 35054 ft | 460 kts | 132° |
| 2026-05-04 11:02 | 48.55318 | 17.47819 | 35058 ft | 460 kts | 132° |
| 2026-05-04 11:05 | 48.24265 | 18.00848 | 35083 ft | 460 kts | 131° |
| 2026-05-04 11:06 | 48.19330 | 18.09188 | 35086 ft | 460 kts | 131° |
| 2026-05-04 11:06 | 48.15769 | 18.15193 | 35087 ft | 460 kts | 132° |
| 2026-05-04 11:10 | 47.85910 | 18.64938 | 35102 ft | 460 kts | 131° |
| 2026-05-04 11:12 | 47.68064 | 18.92250 | 35103 ft | 461 kts | 135° |
| 2026-05-04 11:12 | 47.63500 | 18.98954 | 35113 ft | 462 kts | 134° |
| 2026-05-04 11:13 | 47.58955 | 19.05679 | 35127 ft | 462 kts | 134° |
| 2026-05-04 11:13 | 47.54404 | 19.12391 | 35128 ft | 462 kts | 134° |
| 2026-05-04 11:14 | 47.53665 | 19.13477 | 35129 ft | 462 kts | 134° |
| 2026-05-04 11:16 | 47.31583 | 19.45634 | 35143 ft | 461 kts | 134° |
| 2026-05-04 11:16 | 47.27005 | 19.52254 | 35141 ft | 461 kts | 134° |
| 2026-05-04 11:17 | 47.22419 | 19.58863 | 35136 ft | 461 kts | 134° |
| 2026-05-04 11:19 | 47.04052 | 19.85209 | 35135 ft | 461 kts | 134° |
| 2026-05-04 11:19 | 46.99445 | 19.91759 | 35133 ft | 461 kts | 134° |
| 2026-05-04 11:20 | 46.94829 | 19.98316 | 35130 ft | 461 kts | 134° |
| 2026-05-04 11:20 | 46.90227 | 20.04851 | 35147 ft | 461 kts | 134° |
| 2026-05-04 11:22 | 46.71756 | 20.30845 | 35132 ft | 462 kts | 134° |
| 2026-05-04 11:23 | 46.67116 | 20.37336 | 35134 ft | 462 kts | 134° |
| 2026-05-04 11:25 | 46.50866 | 20.59980 | 35150 ft | 462 kts | 134° |
| 2026-05-04 11:25 | 46.46200 | 20.66414 | 35145 ft | 463 kts | 134° |
| 2026-05-04 11:27 | 46.25235 | 20.95230 | 35159 ft | 462 kts | 134° |
| 2026-05-04 11:28 | 46.20558 | 21.01619 | 35157 ft | 462 kts | 134° |
| 2026-05-04 11:28 | 46.15882 | 21.07980 | 35160 ft | 462 kts | 134° |
| 2026-05-04 11:29 | 46.11198 | 21.14339 | 35169 ft | 462 kts | 134° |
| 2026-05-04 11:29 | 46.06512 | 21.20698 | 35170 ft | 462 kts | 134° |
| 2026-05-04 11:33 | 45.73734 | 21.64682 | 35151 ft | 460 kts | 134° |
| 2026-05-04 11:33 | 45.69058 | 21.70915 | 35154 ft | 459 kts | 134° |
| 2026-05-04 11:34 | 45.64373 | 21.77121 | 35152 ft | 459 kts | 134° |
| 2026-05-04 11:34 | 45.59685 | 21.83320 | 35150 ft | 458 kts | 134° |
| 2026-05-04 11:35 | 45.55001 | 21.89504 | 35144 ft | 458 kts | 135° |
| 2026-05-04 11:35 | 45.50316 | 21.95658 | 35159 ft | 458 kts | 135° |
| 2026-05-04 11:36 | 45.45634 | 22.01797 | 35157 ft | 457 kts | 135° |
| 2026-05-04 11:36 | 45.40966 | 22.07927 | 35159 ft | 456 kts | 135° |
| 2026-05-04 11:37 | 45.36293 | 22.14033 | 35149 ft | 456 kts | 135° |
| 2026-05-04 11:37 | 45.31621 | 22.20115 | 35157 ft | 456 kts | 135° |
| 2026-05-04 11:38 | 45.26940 | 22.26202 | 35149 ft | 456 kts | 135° |
| 2026-05-04 11:38 | 45.22294 | 22.32242 | 35136 ft | 456 kts | 135° |
| 2026-05-04 11:39 | 45.17612 | 22.38305 | 35130 ft | 456 kts | 135° |
| 2026-05-04 11:41 | 45.01180 | 22.59488 | 35102 ft | 457 kts | 135° |
| 2026-05-04 11:41 | 44.96472 | 22.65519 | 35101 ft | 457 kts | 135° |
| 2026-05-04 11:42 | 44.91762 | 22.71540 | 35111 ft | 456 kts | 135° |
| 2026-05-04 11:42 | 44.87063 | 22.77532 | 35119 ft | 454 kts | 135° |
| 2026-05-04 11:43 | 44.82379 | 22.83490 | 35108 ft | 453 kts | 135° |
| 2026-05-04 11:43 | 44.77699 | 22.89436 | 35103 ft | 453 kts | 135° |
| 2026-05-04 11:44 | 44.73020 | 22.95375 | 35102 ft | 453 kts | 135° |
| 2026-05-04 11:44 | 44.68336 | 23.01296 | 35100 ft | 453 kts | 135° |
| 2026-05-04 11:45 | 44.63643 | 23.07202 | 35096 ft | 453 kts | 135° |
| 2026-05-04 11:45 | 44.58955 | 23.13103 | 35096 ft | 453 kts | 135° |
| 2026-05-04 11:46 | 44.54261 | 23.18998 | 35112 ft | 452 kts | 135° |
| 2026-05-04 11:46 | 44.49575 | 23.24858 | 35118 ft | 450 kts | 135° |
| 2026-05-04 11:47 | 44.44946 | 23.30646 | 35113 ft | 448 kts | 135° |
| 2026-05-04 11:47 | 44.40295 | 23.36453 | 35109 ft | 447 kts | 135° |
| 2026-05-04 11:48 | 44.35653 | 23.42229 | 35098 ft | 447 kts | 135° |
| 2026-05-04 11:48 | 44.31012 | 23.47985 | 35110 ft | 445 kts | 136° |
| 2026-05-04 11:49 | 44.26385 | 23.53716 | 35117 ft | 444 kts | 136° |
| 2026-05-04 11:49 | 44.21763 | 23.59430 | 35107 ft | 444 kts | 136° |
| 2026-05-04 11:50 | 44.17141 | 23.65132 | 35097 ft | 443 kts | 136° |
| 2026-05-04 11:50 | 44.12527 | 23.70806 | 35118 ft | 442 kts | 137° |
| 2026-05-04 11:51 | 44.07918 | 23.76461 | 35108 ft | 441 kts | 137° |
| 2026-05-04 11:51 | 44.03319 | 23.82101 | 35106 ft | 440 kts | 137° |
| 2026-05-04 11:52 | 43.98722 | 23.87720 | 35107 ft | 440 kts | 137° |
| 2026-05-04 11:52 | 43.94127 | 23.93324 | 35118 ft | 439 kts | 137° |
| 2026-05-04 11:53 | 43.89540 | 23.98907 | 35124 ft | 437 kts | 138° |
| 2026-05-04 11:53 | 43.85751 | 24.03514 | 35124 ft | 436 kts | 138° |
| 2026-05-04 11:55 | 43.67563 | 24.25560 | 35120 ft | 433 kts | 137° |
| 2026-05-04 11:56 | 43.63206 | 24.31287 | 35117 ft | 432 kts | 135° |
| 2026-05-04 11:56 | 43.58940 | 24.37132 | 35121 ft | 432 kts | 135° |
| 2026-05-04 11:57 | 43.54652 | 24.42929 | 35121 ft | 432 kts | 135° |
| 2026-05-04 11:57 | 43.50324 | 24.48667 | 35119 ft | 431 kts | 136° |
| 2026-05-04 11:58 | 43.45994 | 24.54373 | 35116 ft | 431 kts | 136° |
| 2026-05-04 11:58 | 43.41667 | 24.60077 | 35114 ft | 431 kts | 136° |
| 2026-05-04 11:59 | 43.37344 | 24.65778 | 35122 ft | 430 kts | 135° |
| 2026-05-04 11:59 | 43.33030 | 24.71458 | 35121 ft | 429 kts | 135° |
| 2026-05-04 12:00 | 43.28750 | 24.77086 | 35118 ft | 429 kts | 135° |
| 2026-05-04 12:00 | 43.24437 | 24.82741 | 35113 ft | 428 kts | 135° |
| 2026-05-04 12:01 | 43.20132 | 24.88375 | 35118 ft | 428 kts | 135° |
| 2026-05-04 12:02 | 43.05036 | 25.08027 | 35110 ft | 428 kts | 135° |
| 2026-05-04 12:03 | 43.00729 | 25.13610 | 35110 ft | 427 kts | 135° |
| 2026-05-04 12:03 | 42.96413 | 25.19184 | 35101 ft | 426 kts | 135° |
| 2026-05-04 12:04 | 42.92112 | 25.24743 | 35100 ft | 426 kts | 135° |
| 2026-05-04 12:04 | 42.87806 | 25.30290 | 35093 ft | 426 kts | 134° |
| 2026-05-04 12:05 | 42.83502 | 25.35813 | 35100 ft | 424 kts | 134° |
| 2026-05-04 12:05 | 42.79209 | 25.41325 | 35088 ft | 424 kts | 135° |
| 2026-05-04 12:06 | 42.74938 | 25.46794 | 35072 ft | 424 kts | 134° |
| 2026-05-04 12:06 | 42.70635 | 25.52283 | 35087 ft | 424 kts | 135° |
| 2026-05-04 12:07 | 42.66340 | 25.57755 | 35087 ft | 423 kts | 135° |
| 2026-05-04 12:07 | 42.62043 | 25.63224 | 35080 ft | 423 kts | 135° |
| 2026-05-04 12:08 | 42.57744 | 25.68696 | 35056 ft | 424 kts | 135° |
| 2026-05-04 12:08 | 42.53429 | 25.74167 | 35049 ft | 426 kts | 135° |
| 2026-05-04 12:09 | 42.49096 | 25.79649 | 35071 ft | 425 kts | 135° |
| 2026-05-04 12:09 | 42.44773 | 25.85107 | 35074 ft | 424 kts | 135° |
| 2026-05-04 12:10 | 42.40456 | 25.90547 | 35071 ft | 424 kts | 135° |
| 2026-05-04 12:10 | 42.36140 | 25.95977 | 35080 ft | 423 kts | 134° |
| 2026-05-04 12:11 | 42.31857 | 26.01355 | 35076 ft | 423 kts | 134° |
| 2026-05-04 12:11 | 42.27543 | 26.06763 | 35062 ft | 423 kts | 134° |
| 2026-05-04 12:12 | 42.23221 | 26.12170 | 35055 ft | 424 kts | 134° |
| 2026-05-04 12:12 | 42.18891 | 26.17564 | 35067 ft | 424 kts | 134° |
| 2026-05-04 12:14 | 42.01573 | 26.39066 | 35062 ft | 424 kts | 134° |
| 2026-05-04 12:15 | 41.97230 | 26.44437 | 35056 ft | 424 kts | 134° |
| 2026-05-04 12:15 | 41.92883 | 26.49805 | 35049 ft | 425 kts | 134° |
| 2026-05-04 12:16 | 41.88526 | 26.55169 | 35051 ft | 425 kts | 134° |
| 2026-05-04 12:16 | 41.83796 | 26.60034 | 35171 ft | 431 kts | 141° |
| 2026-05-04 12:17 | 41.81344 | 26.62352 | 35294 ft | 432 kts | 141° |
| 2026-05-04 12:17 | 41.78883 | 26.64684 | 35419 ft | 434 kts | 141° |
| 2026-05-04 12:17 | 41.76413 | 26.67021 | 35544 ft | 435 kts | 141° |
| 2026-05-04 12:17 | 41.73942 | 26.69352 | 35669 ft | 436 kts | 141° |
| 2026-05-04 12:18 | 41.71459 | 26.71687 | 35793 ft | 437 kts | 141° |
| 2026-05-04 12:18 | 41.68968 | 26.74030 | 35919 ft | 438 kts | 141° |
| 2026-05-04 12:18 | 41.66477 | 26.76375 | 36043 ft | 438 kts | 141° |
| 2026-05-04 12:18 | 41.63983 | 26.78721 | 36169 ft | 439 kts | 141° |
| 2026-05-04 12:19 | 41.61481 | 26.81074 | 36297 ft | 440 kts | 141° |
| 2026-05-04 12:19 | 41.58977 | 26.83424 | 36425 ft | 440 kts | 142° |
| 2026-05-04 12:19 | 41.56466 | 26.85779 | 36554 ft | 440 kts | 142° |
| 2026-05-04 12:19 | 41.53989 | 26.88100 | 36692 ft | 441 kts | 142° |
| 2026-05-04 12:20 | 41.51446 | 26.90480 | 36827 ft | 441 kts | 142° |
| 2026-05-04 12:20 | 41.48970 | 26.92790 | 36995 ft | 440 kts | 142° |
| 2026-05-04 12:20 | 41.43926 | 26.97489 | 37041 ft | 445 kts | 142° |
| 2026-05-04 12:21 | 41.38839 | 27.02241 | 37040 ft | 447 kts | 142° |
| 2026-05-04 12:21 | 41.33740 | 27.06991 | 37041 ft | 447 kts | 142° |
| 2026-05-04 12:22 | 41.28630 | 27.11731 | 37044 ft | 448 kts | 142° |
| 2026-05-04 12:22 | 41.23512 | 27.16467 | 37040 ft | 449 kts | 142° |
| 2026-05-04 12:23 | 41.18376 | 27.21222 | 37040 ft | 450 kts | 142° |
| 2026-05-04 12:23 | 41.13230 | 27.25977 | 37034 ft | 451 kts | 142° |
| 2026-05-04 12:24 | 41.08072 | 27.30720 | 37035 ft | 451 kts | 142° |
| 2026-05-04 12:24 | 41.02909 | 27.35460 | 37041 ft | 452 kts | 142° |
| 2026-05-04 12:25 | 40.97738 | 27.40208 | 37033 ft | 452 kts | 142° |
| 2026-05-04 12:25 | 40.92195 | 27.44182 | 37033 ft | 457 kts | 156° |
| 2026-05-04 12:26 | 40.86327 | 27.47282 | 37036 ft | 458 kts | 155° |
| 2026-05-04 12:26 | 40.80413 | 27.50431 | 37053 ft | 459 kts | 155° |
| 2026-05-04 12:27 | 40.74485 | 27.53583 | 37037 ft | 460 kts | 156° |
| 2026-05-04 12:27 | 40.68543 | 27.56740 | 37035 ft | 460 kts | 156° |
| 2026-05-04 12:28 | 40.62600 | 27.59883 | 37042 ft | 461 kts | 156° |
| 2026-05-04 12:28 | 40.56653 | 27.63009 | 37047 ft | 461 kts | 156° |
| 2026-05-04 12:29 | 40.50693 | 27.66145 | 37045 ft | 462 kts | 156° |
| 2026-05-04 12:29 | 40.44715 | 27.69287 | 37057 ft | 463 kts | 156° |
| 2026-05-04 12:30 | 40.38733 | 27.72427 | 37056 ft | 463 kts | 156° |
| 2026-05-04 12:30 | 40.32738 | 27.75561 | 37068 ft | 463 kts | 156° |
| 2026-05-04 12:31 | 40.26738 | 27.78692 | 37065 ft | 464 kts | 156° |
| 2026-05-04 12:31 | 40.20749 | 27.81814 | 37063 ft | 464 kts | 156° |
| 2026-05-04 12:32 | 40.11792 | 27.86489 | 37064 ft | 464 kts | 157° |
| 2026-05-04 12:33 | 40.05786 | 27.89599 | 37053 ft | 465 kts | 157° |
| 2026-05-04 12:33 | 39.99765 | 27.92710 | 37054 ft | 466 kts | 157° |
| 2026-05-04 12:34 | 39.93731 | 27.95828 | 37064 ft | 466 kts | 157° |
| 2026-05-04 12:34 | 39.87704 | 27.98937 | 37079 ft | 465 kts | 157° |
| 2026-05-04 12:35 | 39.81673 | 28.02008 | 37073 ft | 465 kts | 158° |
| 2026-05-04 12:35 | 39.75673 | 28.04997 | 37071 ft | 465 kts | 158° |
| 2026-05-04 12:36 | 39.69582 | 28.08007 | 37080 ft | 466 kts | 158° |
| 2026-05-04 12:36 | 39.63559 | 28.10997 | 37079 ft | 467 kts | 158° |
| 2026-05-04 12:37 | 39.57504 | 28.14007 | 37048 ft | 466 kts | 158° |
| 2026-05-04 12:37 | 39.51440 | 28.17019 | 37048 ft | 467 kts | 158° |
| 2026-05-04 12:38 | 39.45370 | 28.20027 | 37045 ft | 467 kts | 158° |
| 2026-05-04 12:38 | 39.39284 | 28.23033 | 37045 ft | 469 kts | 158° |
| 2026-05-04 12:39 | 39.33190 | 28.26040 | 37039 ft | 470 kts | 158° |
| 2026-05-04 12:39 | 39.27068 | 28.29058 | 37044 ft | 471 kts | 158° |
| 2026-05-04 12:40 | 39.20945 | 28.32056 | 37044 ft | 471 kts | 158° |
| 2026-05-04 12:40 | 39.14808 | 28.35039 | 37051 ft | 471 kts | 158° |
| 2026-05-04 12:41 | 39.08665 | 28.38018 | 37057 ft | 472 kts | 159° |
| 2026-05-04 12:41 | 39.02514 | 28.41013 | 37035 ft | 473 kts | 158° |
| 2026-05-04 12:42 | 38.96375 | 28.44109 | 37031 ft | 474 kts | 158° |
| 2026-05-04 12:42 | 38.90244 | 28.47237 | 37051 ft | 474 kts | 158° |
| 2026-05-04 12:43 | 38.85157 | 28.49816 | 37057 ft | 473 kts | 158° |
| 2026-05-04 12:43 | 38.79030 | 28.52892 | 37050 ft | 473 kts | 158° |
| 2026-05-04 12:44 | 38.72887 | 28.55956 | 37040 ft | 473 kts | 159° |
| 2026-05-04 12:44 | 38.66759 | 28.59010 | 37037 ft | 473 kts | 158° |
| 2026-05-04 12:45 | 38.60626 | 28.62074 | 37036 ft | 473 kts | 158° |
| 2026-05-04 12:45 | 38.54977 | 28.66183 | 37033 ft | 471 kts | 144° |
| 2026-05-04 12:46 | 38.49618 | 28.71003 | 37027 ft | 472 kts | 144° |
| 2026-05-04 12:46 | 38.44242 | 28.75810 | 37025 ft | 472 kts | 145° |
| 2026-05-04 12:47 | 38.38862 | 28.80614 | 37023 ft | 472 kts | 145° |
| 2026-05-04 12:47 | 38.33483 | 28.85402 | 37023 ft | 471 kts | 145° |
| 2026-05-04 12:48 | 38.28109 | 28.90187 | 37004 ft | 471 kts | 145° |
| 2026-05-04 12:48 | 38.22741 | 28.94963 | 37003 ft | 471 kts | 145° |
| 2026-05-04 12:49 | 38.17356 | 28.99738 | 36995 ft | 472 kts | 146° |
| 2026-05-04 12:49 | 38.11956 | 29.04502 | 36992 ft | 473 kts | 146° |
| 2026-05-04 12:50 | 38.06550 | 29.09280 | 37002 ft | 474 kts | 145° |
| 2026-05-04 12:50 | 38.01144 | 29.14055 | 37005 ft | 473 kts | 146° |
| 2026-05-04 12:51 | 37.95735 | 29.18814 | 37001 ft | 473 kts | 146° |
| 2026-05-04 12:51 | 37.90323 | 29.23562 | 36995 ft | 473 kts | 145° |
| 2026-05-04 12:52 | 37.84930 | 29.28287 | 36977 ft | 475 kts | 146° |
| 2026-05-04 12:52 | 37.79486 | 29.33057 | 36974 ft | 477 kts | 146° |
| 2026-05-04 12:53 | 37.74020 | 29.37846 | 36986 ft | 478 kts | 146° |
| 2026-05-04 12:53 | 37.68551 | 29.42615 | 36994 ft | 478 kts | 146° |
| 2026-05-04 12:54 | 37.63069 | 29.47383 | 37003 ft | 477 kts | 146° |
| 2026-05-04 12:54 | 37.57615 | 29.52131 | 37004 ft | 476 kts | 146° |
| 2026-05-04 12:55 | 37.52170 | 29.56859 | 37003 ft | 475 kts | 146° |
| 2026-05-04 12:55 | 37.46727 | 29.61571 | 36983 ft | 475 kts | 146° |
| 2026-05-04 12:56 | 37.41290 | 29.66275 | 36972 ft | 474 kts | 146° |
| 2026-05-04 12:56 | 37.35911 | 29.70922 | 36696 ft | 453 kts | 146° |
| 2026-05-04 12:56 | 37.33343 | 29.73139 | 36781 ft | 441 kts | 146° |
| 2026-05-04 12:57 | 37.30830 | 29.75306 | 36781 ft | 435 kts | 146° |
| 2026-05-04 12:57 | 37.25869 | 29.79577 | 36768 ft | 433 kts | 147° |
| 2026-05-04 12:58 | 37.20874 | 29.83870 | 36930 ft | 436 kts | 148° |
| 2026-05-04 12:58 | 37.18373 | 29.86019 | 37057 ft | 437 kts | 148° |
| 2026-05-04 12:58 | 37.15837 | 29.88194 | 37014 ft | 443 kts | 147° |
| 2026-05-04 12:59 | 37.10696 | 29.92597 | 36962 ft | 452 kts | 147° |
| 2026-05-04 12:59 | 37.05494 | 29.97061 | 36954 ft | 460 kts | 147° |
| 2026-05-04 13:00 | 37.00173 | 30.01623 | 36945 ft | 468 kts | 147° |
| 2026-05-04 13:00 | 36.94777 | 30.06234 | 36943 ft | 470 kts | 148° |
| 2026-05-04 13:01 | 36.89376 | 30.10844 | 36933 ft | 470 kts | 148° |
| 2026-05-04 13:01 | 36.83965 | 30.15455 | 36912 ft | 471 kts | 148° |
| 2026-05-04 13:02 | 36.78560 | 30.20044 | 36911 ft | 470 kts | 148° |
| 2026-05-04 13:02 | 36.73143 | 30.24623 | 36900 ft | 470 kts | 148° |
| 2026-05-04 13:03 | 36.67716 | 30.29199 | 36911 ft | 470 kts | 148° |
| 2026-05-04 13:03 | 36.62175 | 30.33883 | 36904 ft | 471 kts | 148° |
| 2026-05-04 13:04 | 36.56876 | 30.38355 | 36911 ft | 471 kts | 148° |
| 2026-05-04 13:04 | 36.51457 | 30.42913 | 36910 ft | 470 kts | 149° |
| 2026-05-04 13:05 | 36.46034 | 30.47460 | 36908 ft | 470 kts | 149° |
| 2026-05-04 13:05 | 36.40607 | 30.52015 | 36914 ft | 471 kts | 149° |
| 2026-05-04 13:06 | 36.35169 | 30.56569 | 36908 ft | 471 kts | 149° |
| 2026-05-04 13:06 | 36.29729 | 30.61101 | 36909 ft | 471 kts | 149° |
| 2026-05-04 13:07 | 36.24332 | 30.65603 | 36916 ft | 471 kts | 149° |
| 2026-05-04 13:07 | 36.18888 | 30.70131 | 36922 ft | 471 kts | 149° |
| 2026-05-04 13:08 | 36.13440 | 30.74640 | 36913 ft | 471 kts | 149° |
| 2026-05-04 13:08 | 36.07991 | 30.79118 | 36913 ft | 469 kts | 153° |
| 2026-05-04 13:09 | 36.02034 | 30.82094 | 36916 ft | 458 kts | 172° |
| 2026-05-04 13:09 | 35.95759 | 30.82820 | 36918 ft | 451 kts | 183° |
| 2026-05-04 13:10 | 35.89471 | 30.83106 | 36926 ft | 451 kts | 183° |
| 2026-05-04 13:10 | 35.83209 | 30.83405 | 36910 ft | 450 kts | 183° |
| 2026-05-04 13:11 | 35.76955 | 30.83706 | 36907 ft | 450 kts | 183° |
| 2026-05-04 13:11 | 35.70706 | 30.84000 | 36907 ft | 449 kts | 184° |
| 2026-05-04 13:12 | 35.64474 | 30.84291 | 36917 ft | 448 kts | 184° |
| 2026-05-04 13:12 | 35.58247 | 30.84584 | 36914 ft | 448 kts | 184° |
| 2026-05-04 13:13 | 35.52022 | 30.84875 | 36909 ft | 447 kts | 184° |
| 2026-05-04 13:13 | 35.45840 | 30.85158 | 36916 ft | 447 kts | 184° |
| 2026-05-04 13:14 | 35.39631 | 30.85444 | 36914 ft | 447 kts | 184° |
| 2026-05-04 13:14 | 35.33416 | 30.85738 | 36909 ft | 446 kts | 184° |
| 2026-05-04 13:15 | 35.27219 | 30.86027 | 36917 ft | 446 kts | 184° |
| 2026-05-04 13:15 | 35.21013 | 30.86310 | 36907 ft | 445 kts | 185° |
| 2026-05-04 13:16 | 35.14828 | 30.86577 | 36905 ft | 444 kts | 185° |
| 2026-05-04 13:16 | 35.08657 | 30.86784 | 36920 ft | 443 kts | 186° |
| 2026-05-04 13:17 | 35.02497 | 30.86969 | 36907 ft | 442 kts | 186° |
| 2026-05-04 13:17 | 34.96344 | 30.87162 | 36909 ft | 442 kts | 186° |
| 2026-05-04 13:18 | 34.90183 | 30.87367 | 36907 ft | 442 kts | 186° |
| 2026-05-04 13:18 | 34.84029 | 30.87568 | 36916 ft | 442 kts | 186° |
| 2026-05-04 13:19 | 34.77879 | 30.87780 | 36917 ft | 442 kts | 186° |
| 2026-05-04 13:19 | 34.71735 | 30.87990 | 36914 ft | 441 kts | 186° |
| 2026-05-04 13:20 | 34.65596 | 30.88189 | 36924 ft | 440 kts | 187° |
| 2026-05-04 13:20 | 34.59476 | 30.88395 | 36913 ft | 440 kts | 186° |
| 2026-05-04 13:21 | 34.53345 | 30.88707 | 36933 ft | 441 kts | 186° |
| 2026-05-04 13:21 | 34.47259 | 30.89061 | 36941 ft | 441 kts | 186° |
| 2026-05-04 13:22 | 34.41086 | 30.89399 | 36947 ft | 441 kts | 186° |
| 2026-05-04 13:22 | 34.35001 | 30.89710 | 36950 ft | 440 kts | 186° |
| 2026-05-04 13:23 | 34.28840 | 30.90028 | 36951 ft | 440 kts | 186° |
| 2026-05-04 13:23 | 34.22759 | 30.90332 | 36954 ft | 440 kts | 186° |
| 2026-05-04 13:24 | 34.16642 | 30.90646 | 36957 ft | 440 kts | 186° |
| 2026-05-04 13:24 | 34.10531 | 30.90972 | 36955 ft | 440 kts | 186° |
| 2026-05-04 13:25 | 34.01368 | 30.91449 | 36959 ft | 439 kts | 187° |
| 2026-05-04 13:25 | 33.95266 | 30.91763 | 36970 ft | 438 kts | 188° |
| 2026-05-04 13:26 | 33.89183 | 30.92106 | 36980 ft | 437 kts | 187° |
| 2026-05-04 13:26 | 33.83121 | 30.92474 | 36981 ft | 436 kts | 187° |
| 2026-05-04 13:27 | 33.77067 | 30.92826 | 36980 ft | 435 kts | 187° |
| 2026-05-04 13:27 | 33.71027 | 30.93178 | 36982 ft | 434 kts | 187° |
| 2026-05-04 13:28 | 33.64987 | 30.93530 | 36983 ft | 434 kts | 187° |
| 2026-05-04 13:28 | 33.58959 | 30.93887 | 36984 ft | 434 kts | 187° |
| 2026-05-04 13:29 | 33.52928 | 30.94239 | 36991 ft | 433 kts | 188° |
| 2026-05-04 13:29 | 33.46911 | 30.94581 | 36994 ft | 432 kts | 188° |
| 2026-05-04 13:30 | 33.40906 | 30.94930 | 36997 ft | 432 kts | 188° |
| 2026-05-04 13:30 | 33.35934 | 30.95113 | 36997 ft | 428 kts | 190° |
| 2026-05-04 13:31 | 33.29997 | 30.95074 | 37001 ft | 426 kts | 191° |
| 2026-05-04 13:31 | 33.23097 | 30.94980 | 37006 ft | 426 kts | 191° |
| 2026-05-04 13:32 | 33.18125 | 30.94964 | 37015 ft | 427 kts | 191° |
| 2026-05-04 13:32 | 33.12181 | 30.94988 | 37022 ft | 427 kts | 190° |
| 2026-05-04 13:33 | 33.06254 | 30.95286 | 37027 ft | 432 kts | 187° |
| 2026-05-04 13:33 | 33.00255 | 30.95948 | 37033 ft | 434 kts | 185° |
| 2026-05-04 13:34 | 32.94252 | 30.96721 | 37035 ft | 434 kts | 185° |
| 2026-05-04 13:34 | 32.88254 | 30.97438 | 37042 ft | 432 kts | 186° |
| 2026-05-04 13:35 | 32.79277 | 30.98449 | 37046 ft | 431 kts | 186° |
| 2026-05-04 13:36 | 32.73292 | 30.99114 | 37040 ft | 431 kts | 186° |
| 2026-05-04 13:36 | 32.67313 | 30.99773 | 37051 ft | 431 kts | 186° |
| 2026-05-04 13:37 | 32.61381 | 31.00428 | 37056 ft | 430 kts | 186° |
| 2026-05-04 13:37 | 32.55421 | 31.01088 | 37056 ft | 430 kts | 186° |
| 2026-05-04 13:38 | 32.49470 | 31.01752 | 37062 ft | 430 kts | 186° |
| 2026-05-04 13:38 | 32.43517 | 31.02417 | 37061 ft | 429 kts | 186° |
| 2026-05-04 13:39 | 32.37581 | 31.03075 | 37065 ft | 428 kts | 186° |
| 2026-05-04 13:39 | 32.31641 | 31.03726 | 37068 ft | 428 kts | 186° |
| 2026-05-04 13:40 | 32.25710 | 31.04378 | 37068 ft | 428 kts | 186° |
| 2026-05-04 13:40 | 32.19773 | 31.05031 | 37071 ft | 428 kts | 186° |
| 2026-05-04 13:41 | 32.13840 | 31.05682 | 37075 ft | 428 kts | 186° |
| 2026-05-04 13:41 | 32.07913 | 31.06335 | 37080 ft | 428 kts | 186° |
| 2026-05-04 13:42 | 31.99052 | 31.07308 | 37080 ft | 428 kts | 186° |
| 2026-05-04 13:42 | 31.93128 | 31.07947 | 37096 ft | 427 kts | 186° |
| 2026-05-04 13:43 | 31.87225 | 31.08583 | 37097 ft | 426 kts | 187° |
| 2026-05-04 13:43 | 31.81327 | 31.09211 | 37092 ft | 425 kts | 187° |
| 2026-05-04 13:44 | 31.75438 | 31.09839 | 37103 ft | 425 kts | 187° |
| 2026-05-04 13:44 | 31.69556 | 31.10469 | 37085 ft | 424 kts | 187° |
| 2026-05-04 13:45 | 31.63671 | 31.11097 | 37084 ft | 424 kts | 186° |
| 2026-05-04 13:45 | 31.57789 | 31.11734 | 37084 ft | 425 kts | 186° |
| 2026-05-04 13:46 | 31.51910 | 31.12387 | 37101 ft | 426 kts | 185° |
| 2026-05-04 13:46 | 31.46007 | 31.13376 | 37097 ft | 430 kts | 182° |
| 2026-05-04 13:47 | 31.40093 | 31.14598 | 37096 ft | 431 kts | 182° |
| 2026-05-04 13:47 | 31.34235 | 31.15777 | 37088 ft | 430 kts | 182° |
| 2026-05-04 13:48 | 31.28328 | 31.16891 | 37097 ft | 429 kts | 183° |
| 2026-05-04 13:48 | 31.22428 | 31.17972 | 37087 ft | 429 kts | 183° |
| 2026-05-04 13:49 | 31.16535 | 31.19061 | 37099 ft | 429 kts | 183° |
| 2026-05-04 13:49 | 31.10640 | 31.20164 | 37084 ft | 429 kts | 182° |
| 2026-05-04 13:50 | 31.04747 | 31.21263 | 37084 ft | 429 kts | 182° |
| 2026-05-04 13:50 | 30.98847 | 31.22357 | 37086 ft | 429 kts | 183° |
| 2026-05-04 13:51 | 30.92947 | 31.23450 | 37085 ft | 429 kts | 183° |
| 2026-05-04 13:51 | 30.87057 | 31.24533 | 37094 ft | 429 kts | 183° |
| 2026-05-04 13:52 | 30.78249 | 31.26163 | 37085 ft | 429 kts | 182° |
| 2026-05-04 13:53 | 30.72354 | 31.27253 | 37083 ft | 429 kts | 182° |
| 2026-05-04 13:53 | 30.66464 | 31.28334 | 37084 ft | 429 kts | 182° |
| 2026-05-04 13:54 | 30.57633 | 31.29962 | 37082 ft | 428 kts | 182° |
| 2026-05-04 13:55 | 30.48804 | 31.31597 | 37081 ft | 428 kts | 182° |
| 2026-05-04 13:55 | 30.39988 | 31.33221 | 37078 ft | 428 kts | 182° |
| 2026-05-04 13:56 | 30.34108 | 31.34290 | 37077 ft | 427 kts | 182° |
| 2026-05-04 13:57 | 30.25302 | 31.35901 | 37082 ft | 427 kts | 182° |
| 2026-05-04 13:58 | 30.13581 | 31.38047 | 37072 ft | 426 kts | 182° |
| 2026-05-04 13:58 | 30.04807 | 31.40283 | 37067 ft | 436 kts | 175° |
| 2026-05-04 13:59 | 29.98977 | 31.42232 | 37064 ft | 437 kts | 175° |
| 2026-05-04 14:00 | 29.90222 | 31.45163 | 37071 ft | 436 kts | 175° |
| 2026-05-04 14:00 | 29.81477 | 31.48059 | 37073 ft | 436 kts | 175° |
| 2026-05-04 14:01 | 29.75650 | 31.49983 | 37072 ft | 436 kts | 175° |
| 2026-05-04 14:02 | 29.66949 | 31.52848 | 37075 ft | 435 kts | 175° |
| 2026-05-04 14:02 | 29.61125 | 31.54756 | 37077 ft | 435 kts | 175° |
| 2026-05-04 14:03 | 29.55305 | 31.56659 | 37076 ft | 435 kts | 175° |
| 2026-05-04 14:03 | 29.49478 | 31.58564 | 37076 ft | 435 kts | 175° |
| 2026-05-04 14:04 | 29.40733 | 31.61417 | 37072 ft | 435 kts | 175° |
| 2026-05-04 14:04 | 29.34899 | 31.63315 | 37066 ft | 436 kts | 175° |
| 2026-05-04 14:05 | 29.26146 | 31.66170 | 37067 ft | 437 kts | 175° |
| 2026-05-04 14:06 | 29.20336 | 31.68057 | 37068 ft | 437 kts | 175° |
| 2026-05-04 14:06 | 29.14486 | 31.69959 | 37069 ft | 437 kts | 175° |
| 2026-05-04 14:07 | 29.08635 | 31.71851 | 37070 ft | 437 kts | 175° |
| 2026-05-04 14:07 | 29.02769 | 31.73740 | 37067 ft | 437 kts | 175° |
| 2026-05-04 14:08 | 28.96907 | 31.75630 | 37065 ft | 438 kts | 175° |
| 2026-05-04 14:08 | 28.91036 | 31.77510 | 37063 ft | 438 kts | 175° |
| 2026-05-04 14:09 | 28.82222 | 31.80304 | 37062 ft | 438 kts | 175° |
| 2026-05-04 14:10 | 28.73399 | 31.83082 | 37060 ft | 439 kts | 175° |
| 2026-05-04 14:10 | 28.67510 | 31.84944 | 37062 ft | 439 kts | 175° |
| 2026-05-04 14:11 | 28.61629 | 31.86807 | 37059 ft | 439 kts | 175° |
| 2026-05-04 14:11 | 28.52808 | 31.89602 | 37057 ft | 439 kts | 175° |
| 2026-05-04 14:12 | 28.46920 | 31.91466 | 37058 ft | 439 kts | 175° |
| 2026-05-04 14:13 | 28.38086 | 31.94246 | 37054 ft | 440 kts | 175° |
| 2026-05-04 14:13 | 28.32179 | 31.96100 | 37052 ft | 440 kts | 175° |
| 2026-05-04 14:14 | 28.26265 | 31.97951 | 37055 ft | 441 kts | 175° |
| 2026-05-04 14:14 | 28.17380 | 32.00752 | 37058 ft | 441 kts | 175° |
| 2026-05-04 14:15 | 28.05540 | 32.04461 | 37057 ft | 442 kts | 175° |
| 2026-05-04 14:16 | 27.96656 | 32.07265 | 37060 ft | 442 kts | 174° |
| 2026-05-04 14:17 | 27.87773 | 32.10133 | 37059 ft | 442 kts | 174° |
| 2026-05-04 14:18 | 27.78936 | 32.12960 | 37057 ft | 442 kts | 174° |
| 2026-05-04 14:19 | 27.67101 | 32.16751 | 37060 ft | 442 kts | 174° |
| 2026-05-04 14:19 | 27.61184 | 32.18632 | 37066 ft | 442 kts | 174° |
| 2026-05-04 14:20 | 27.55268 | 32.20512 | 37067 ft | 442 kts | 174° |
| 2026-05-04 14:20 | 27.50354 | 32.22069 | 37063 ft | 441 kts | 174° |
| 2026-05-04 14:21 | 27.41517 | 32.24868 | 36978 ft | 439 kts | 175° |
| 2026-05-04 14:21 | 27.35632 | 32.26732 | 36976 ft | 440 kts | 175° |
| 2026-05-04 14:22 | 27.29733 | 32.28596 | 36984 ft | 440 kts | 175° |
| 2026-05-04 14:22 | 27.23834 | 32.30463 | 36990 ft | 440 kts | 175° |
| 2026-05-04 14:23 | 27.14995 | 32.33252 | 36998 ft | 440 kts | 175° |
| 2026-05-04 14:24 | 27.09105 | 32.35109 | 37003 ft | 440 kts | 175° |
| 2026-05-04 14:24 | 27.03252 | 32.36949 | 37003 ft | 439 kts | 175° |
| 2026-05-04 14:25 | 26.97367 | 32.38799 | 37020 ft | 439 kts | 175° |
| 2026-05-04 14:25 | 26.88537 | 32.41584 | 37033 ft | 439 kts | 175° |
| 2026-05-04 14:26 | 26.82652 | 32.43432 | 37031 ft | 439 kts | 175° |
| 2026-05-04 14:26 | 26.76779 | 32.45266 | 37038 ft | 438 kts | 175° |
| 2026-05-04 14:27 | 26.70896 | 32.47100 | 37032 ft | 438 kts | 175° |
| 2026-05-04 14:27 | 26.65027 | 32.48933 | 37030 ft | 438 kts | 175° |
| 2026-05-04 14:28 | 26.59162 | 32.50772 | 37026 ft | 438 kts | 175° |
| 2026-05-04 14:28 | 26.53300 | 32.52607 | 37022 ft | 437 kts | 175° |
| 2026-05-04 14:29 | 26.41578 | 32.56258 | 37015 ft | 437 kts | 175° |
| 2026-05-04 14:30 | 26.35728 | 32.58073 | 37012 ft | 437 kts | 175° |
| 2026-05-04 14:31 | 26.26984 | 32.60791 | 36998 ft | 437 kts | 175° |
| 2026-05-04 14:32 | 26.15267 | 32.64413 | 36985 ft | 437 kts | 175° |
| 2026-05-04 14:32 | 26.09408 | 32.66231 | 36984 ft | 437 kts | 175° |
| 2026-05-04 14:33 | 26.03581 | 32.68041 | 36989 ft | 437 kts | 175° |
| 2026-05-04 14:33 | 25.97724 | 32.69851 | 36984 ft | 437 kts | 175° |
| 2026-05-04 14:34 | 25.91870 | 32.71660 | 36976 ft | 437 kts | 175° |
| 2026-05-04 14:34 | 25.86011 | 32.73458 | 36972 ft | 437 kts | 175° |
| 2026-05-04 14:35 | 25.80153 | 32.75277 | 36977 ft | 440 kts | 172° |
| 2026-05-04 14:35 | 25.77337 | 32.76644 | 36756 ft | 456 kts | 160° |
| 2026-05-04 14:35 | 25.74695 | 32.78702 | 36505 ft | 472 kts | 148° |
| 2026-05-04 14:35 | 25.72375 | 32.81341 | 36210 ft | 486 kts | 137° |
| 2026-05-04 14:36 | 25.70349 | 32.84423 | 34697 ft | 502 kts | 131° |
| 2026-05-04 14:36 | 25.68369 | 32.87684 | 32768 ft | 517 kts | 130° |
| 2026-05-04 14:36 | 25.66378 | 32.91036 | 30875 ft | 525 kts | 129° |
| 2026-05-04 14:36 | 25.64384 | 32.94444 | 28958 ft | 527 kts | 128° |
| 2026-05-04 14:37 | 25.62399 | 32.97846 | 26906 ft | 527 kts | 128° |
| 2026-05-04 14:37 | 25.60396 | 33.01255 | 24620 ft | 529 kts | 128° |
| 2026-05-04 14:37 | 25.58380 | 33.04651 | 23063 ft | 519 kts | 127° |
| 2026-05-04 14:37 | 25.56417 | 33.07934 | 21712 ft | 506 kts | 128° |
| 2026-05-04 14:38 | 25.54509 | 33.11113 | 20999 ft | 482 kts | 128° |
| 2026-05-04 14:38 | 25.52714 | 33.14109 | 20742 ft | 451 kts | 128° |
| 2026-05-04 14:38 | 25.51029 | 33.16920 | 20489 ft | 426 kts | 128° |
| 2026-05-04 14:38 | 25.49434 | 33.19579 | 20242 ft | 406 kts | 128° |
| 2026-05-04 14:39 | 25.47883 | 33.22155 | 19990 ft | 399 kts | 128° |
| 2026-05-04 14:39 | 25.46350 | 33.24692 | 19756 ft | 395 kts | 129° |
| 2026-05-04 14:39 | 25.44822 | 33.27213 | 19512 ft | 394 kts | 128° |
| 2026-05-04 14:40 | 25.41792 | 33.32229 | 19012 ft | 390 kts | 128° |
| 2026-05-04 14:40 | 25.40420 | 33.34818 | 18762 ft | 393 kts | 116° |
| 2026-05-04 14:40 | 25.39740 | 33.37713 | 18516 ft | 396 kts | 96° |
| 2026-05-04 14:40 | 25.39843 | 33.40759 | 18265 ft | 397 kts | 84° |
| 2026-05-04 14:41 | 25.40161 | 33.43784 | 18017 ft | 395 kts | 84° |
| 2026-05-04 14:41 | 25.40485 | 33.46788 | 17763 ft | 393 kts | 84° |
| 2026-05-04 14:41 | 25.41129 | 33.52781 | 17263 ft | 391 kts | 84° |
| 2026-05-04 14:42 | 25.41762 | 33.58732 | 16780 ft | 388 kts | 84° |
| 2026-05-04 14:42 | 25.42073 | 33.61696 | 16528 ft | 387 kts | 84° |
| 2026-05-04 14:42 | 25.42385 | 33.64647 | 16278 ft | 386 kts | 84° |
| 2026-05-04 14:43 | 25.42696 | 33.67592 | 16025 ft | 385 kts | 84° |
| 2026-05-04 14:43 | 25.43005 | 33.70524 | 15777 ft | 383 kts | 84° |
| 2026-05-04 14:43 | 25.43313 | 33.73446 | 15524 ft | 382 kts | 84° |
| 2026-05-04 14:43 | 25.43621 | 33.76370 | 15273 ft | 382 kts | 84° |
| 2026-05-04 14:44 | 25.43927 | 33.79304 | 15027 ft | 395 kts | 84° |
| 2026-05-04 14:44 | 25.44245 | 33.82410 | 14924 ft | 413 kts | 85° |
| 2026-05-04 14:44 | 25.44569 | 33.85600 | 14971 ft | 419 kts | 85° |
| 2026-05-04 14:44 | 25.44902 | 33.88817 | 14973 ft | 425 kts | 84° |
| 2026-05-04 14:45 | 25.45247 | 33.92140 | 14972 ft | 441 kts | 84° |
| 2026-05-04 14:45 | 25.45597 | 33.95529 | 14981 ft | 445 kts | 84° |
| 2026-05-04 14:45 | 25.45947 | 33.98934 | 14968 ft | 445 kts | 84° |
| 2026-05-04 14:45 | 25.46298 | 34.02334 | 14971 ft | 445 kts | 85° |
| 2026-05-04 14:46 | 25.46646 | 34.05730 | 14972 ft | 445 kts | 85° |
| 2026-05-04 14:46 | 25.46982 | 34.09130 | 14979 ft | 444 kts | 86° |
| 2026-05-04 14:46 | 25.46914 | 34.12501 | 14963 ft | 429 kts | 100° |
| 2026-05-04 14:46 | 25.46251 | 34.15644 | 14740 ft | 412 kts | 112° |
| 2026-05-04 14:47 | 25.45388 | 34.18534 | 14483 ft | 390 kts | 112° |
| 2026-05-04 14:47 | 25.44550 | 34.21344 | 14260 ft | 370 kts | 112° |
| 2026-05-04 14:47 | 25.43772 | 34.23955 | 13918 ft | 359 kts | 112° |
| 2026-05-04 14:47 | 25.42974 | 34.26611 | 13493 ft | 359 kts | 113° |
| 2026-05-04 14:48 | 25.42196 | 34.29189 | 13081 ft | 358 kts | 113° |
| 2026-05-04 14:48 | 25.41410 | 34.31797 | 12673 ft | 357 kts | 113° |
| 2026-05-04 14:48 | 25.40626 | 34.34402 | 12241 ft | 356 kts | 112° |
| 2026-05-04 14:48 | 25.39844 | 34.37002 | 11823 ft | 356 kts | 113° |
| 2026-05-04 14:49 | 25.39067 | 34.39591 | 11399 ft | 354 kts | 112° |
| 2026-05-04 14:49 | 25.38286 | 34.42194 | 10975 ft | 352 kts | 112° |
| 2026-05-04 14:49 | 25.37526 | 34.44725 | 10545 ft | 350 kts | 111° |
| 2026-05-04 14:49 | 25.36760 | 34.47273 | 10136 ft | 348 kts | 111° |
| 2026-05-04 14:50 | 25.36010 | 34.49766 | 9996 ft | 336 kts | 111° |
| 2026-05-04 14:50 | 25.35287 | 34.52177 | 9813 ft | 324 kts | 111° |
| 2026-05-04 14:50 | 25.34585 | 34.54507 | 9499 ft | 317 kts | 111° |
| 2026-05-04 14:50 | 25.33879 | 34.56831 | 8871 ft | 318 kts | 111° |
| 2026-05-04 14:51 | 25.33212 | 34.59137 | 8229 ft | 313 kts | 108° |
| 2026-05-04 14:51 | 25.32632 | 34.61449 | 7568 ft | 311 kts | 106° |
| 2026-05-04 14:51 | 25.32098 | 34.63751 | 6872 ft | 308 kts | 104° |
| 2026-05-04 14:51 | 25.31967 | 34.66080 | 6242 ft | 303 kts | 77° |
| 2026-05-04 14:52 | 25.32779 | 34.68112 | 6027 ft | 278 kts | 50° |
| 2026-05-04 14:52 | 25.34153 | 34.69479 | 5976 ft | 256 kts | 26° |
| 2026-05-04 14:52 | 25.35793 | 34.70109 | 5359 ft | 248 kts | 0° |
| 2026-05-04 14:52 | 25.37470 | 34.69933 | 4709 ft | 241 kts | 338° |
| 2026-05-04 14:53 | 25.38955 | 34.69124 | 4080 ft | 238 kts | 327° |
| 2026-05-04 14:53 | 25.40378 | 34.68200 | 3512 ft | 236 kts | 328° |
| 2026-05-04 14:53 | 25.41781 | 34.67297 | 2982 ft | 231 kts | 328° |
| 2026-05-04 14:53 | 25.43155 | 34.66415 | 2563 ft | 223 kts | 329° |
| 2026-05-04 14:54 | 25.44457 | 34.65580 | 2325 ft | 209 kts | 330° |
| 2026-05-04 14:54 | 25.45668 | 34.64807 | 2151 ft | 193 kts | 330° |
| 2026-05-04 14:54 | 25.46756 | 34.64109 | 2034 ft | 169 kts | 330° |
| 2026-05-04 14:54 | 25.47715 | 34.63495 | 1813 ft | 150 kts | 330° |
| 2026-05-04 14:55 | 25.48579 | 34.62942 | 1605 ft | 138 kts | 330° |
| 2026-05-04 14:55 | 25.49401 | 34.62420 | 1420 ft | 135 kts | 332° |
| 2026-05-04 14:55 | 25.50210 | 34.61920 | 1230 ft | 133 kts | 332° |
| 2026-05-04 14:55 | 25.51002 | 34.61408 | 1047 ft | 130 kts | 331° |
| 2026-05-04 14:56 | 25.51781 | 34.60898 | 874 ft | 129 kts | 330° |
| 2026-05-04 14:56 | 25.52556 | 34.60398 | 721 ft | 129 kts | 332° |
| 2026-05-04 14:56 | 25.53335 | 34.59897 | 544 ft | 130 kts | 331° |
| 2026-05-04 14:56 | 25.54123 | 34.59399 | 383 ft | 131 kts | 331° |
| 2026-05-04 14:57 | 25.54894 | 34.58906 | 259 ft | 122 kts | 331° |
| 2026-05-04 14:57 | 25.55492 | 34.58523 | 256 ft | 73 kts | 330° |
| 2026-05-04 14:57 | 25.55799 | 34.58325 | 261 ft | 39 kts | 330° |
| 2026-05-04 14:57 | 25.56004 | 34.58193 | 261 ft | 31 kts | 330° |
| 2026-05-04 14:58 | 25.56187 | 34.58074 | 259 ft | 30 kts | 329° |
| 2026-05-04 14:58 | 25.56362 | 34.57965 | 257 ft | 29 kts | 328° |
| 2026-05-04 14:58 | 25.56527 | 34.57858 | 260 ft | 26 kts | 329° |
| 2026-05-04 14:58 | 25.56682 | 34.57758 | 262 ft | 25 kts | 331° |
| 2026-05-04 14:59 | 25.56828 | 34.57694 | 266 ft | 22 kts | 1° |
| 2026-05-04 14:59 | 25.56853 | 34.57651 | 266 ft | 11 kts | 173° |
| 2026-05-04 14:59 | 25.56388 | 34.57949 | 257 ft | 56 kts | 149° |
| 2026-05-04 15:00 | 25.56068 | 34.58156 | 260 ft | 51 kts | 150° |
| 2026-05-04 15:00 | 25.55777 | 34.58341 | 261 ft | 47 kts | 150° |
| 2026-05-04 15:00 | 25.55528 | 34.58498 | 257 ft | 33 kts | 150° |
| 2026-05-04 15:01 | 25.55625 | 34.58832 | 243 ft | 19 kts | 62° |
| 2026-05-04 15:01 | 25.55603 | 34.58921 | 242 ft | 12 kts | 154° |
| 2026-05-04 15:01 | 25.55530 | 34.58960 | 242 ft | 11 kts | 153° |
| 2026-05-04 15:01 | 25.55463 | 34.58999 | 242 ft | 10 kts | 150° |
| 2026-05-04 15:02 | 25.55409 | 34.59034 | 242 ft | 6 kts | 149° |
| 2026-05-04 15:02 | 25.55403 | 34.59066 | 242 ft | 4 kts | 58° |
| 2026-05-04 15:02 | 25.55416 | 34.59089 | 242 ft | 3 kts | 59° |
| 2026-05-04 15:02 | 25.55424 | 34.59106 | 242 ft | 2 kts | 61° |
| 2026-05-04 15:03 | 25.55426 | 34.59110 | 242 ft | 0 kts | 60° |